createdAt,value
2018-12-03T00:03:53.513Z,132.50
2018-12-03T00:06:24.105Z,139.40
2018-12-03T00:08:54.568Z,137.87
2018-12-03T00:11:24.951Z,137.87
2018-12-03T00:13:55.494Z,130.63
2018-12-03T00:16:25.843Z,129.80
2018-12-03T00:18:56.337Z,135.67
2018-12-03T00:21:26.839Z,132.20
2018-12-03T00:23:57.250Z,136.13
2018-12-03T00:26:27.786Z,145.43
2018-12-03T00:28:58.933Z,150.00
2018-12-03T00:31:29.475Z,146.57
2018-12-03T00:33:59.869Z,141.30
2018-12-03T00:36:30.313Z,145.83
2018-12-03T00:39:00.588Z,140.97
2018-12-03T00:41:30.913Z,144.17
2018-12-03T00:44:01.453Z,154.23
2018-12-03T00:46:31.804Z,156.73
2018-12-03T00:49:02.210Z,159.30
2018-12-03T00:51:32.552Z,151.67
2018-12-03T00:54:02.717Z,166.63
2018-12-03T00:56:32.868Z,173.83
2018-12-03T00:59:03.171Z,180.77
2018-12-03T01:01:36.129Z,197.33
2018-12-03T01:04:06.675Z,189.20
2018-12-03T01:06:37.204Z,208.93
2018-12-03T01:09:09.493Z,213.40
2018-12-03T01:11:39.972Z,203.63
2018-12-03T01:14:10.441Z,205.90
2018-12-03T01:16:40.844Z,213.00
2018-12-03T01:19:11.270Z,200.80
2018-12-03T01:21:41.598Z,197.53
2018-12-03T01:24:11.936Z,176.07
2018-12-03T01:26:42.224Z,172.13
2018-12-03T01:29:12.587Z,185.80
2018-12-03T01:31:42.860Z,183.73
2018-12-03T01:34:13.162Z,175.10
2018-12-03T01:36:43.495Z,191.83
2018-12-03T01:39:13.567Z,202.80
2018-12-03T01:41:44.225Z,203.37
2018-12-03T01:44:14.557Z,193.33
2018-12-03T01:46:44.910Z,189.30
2018-12-03T01:49:15.291Z,187.03
2018-12-03T01:51:45.648Z,187.63
2018-12-03T01:54:15.793Z,190.63
2018-12-03T01:56:46.165Z,188.80
2018-12-03T01:59:16.399Z,195.87
2018-12-03T02:01:46.570Z,189.97
2018-12-03T02:04:16.934Z,194.23
2018-12-03T02:06:47.322Z,187.83
2018-12-03T02:09:17.621Z,182.33
2018-12-03T02:11:48.042Z,176.03
2018-12-03T02:14:18.530Z,184.40
2018-12-03T02:16:48.748Z,178.77
2018-12-03T02:19:19.204Z,171.50
2018-12-03T02:21:49.504Z,174.37
2018-12-03T02:24:19.864Z,194.37
2018-12-03T02:26:50.060Z,187.50
2018-12-03T02:29:21.084Z,185.63
2018-12-03T02:31:51.353Z,187.10
2018-12-03T02:34:21.646Z,199.40
2018-12-03T02:36:52.453Z,193.57
2018-12-03T02:39:23.060Z,197.10
2018-12-03T02:41:53.588Z,192.37
2018-12-03T02:44:24.063Z,197.50
2018-12-03T02:46:54.226Z,193.23
2018-12-03T02:49:24.517Z,195.27
2018-12-03T02:51:54.846Z,195.83
2018-12-03T02:54:25.216Z,190.17
2018-12-03T02:56:55.368Z,187.53
2018-12-03T02:59:25.606Z,190.87
2018-12-03T03:01:56.053Z,190.43
2018-12-03T03:04:26.472Z,180.10
2018-12-03T03:06:56.802Z,181.10
2018-12-03T03:09:27.029Z,179.73
2018-12-03T03:11:57.234Z,172.43
2018-12-03T03:14:27.473Z,171.47
2018-12-03T03:16:57.812Z,168.67
2018-12-03T03:19:28.042Z,168.10
2018-12-03T03:21:58.276Z,174.80
2018-12-03T03:24:28.533Z,168.83
2018-12-03T03:26:58.950Z,165.67
2018-12-03T03:29:29.793Z,168.50
2018-12-03T03:32:00.248Z,165.33
2018-12-03T03:34:30.372Z,171.03
2018-12-03T03:37:00.911Z,168.07
2018-12-03T03:39:31.303Z,163.00
2018-12-03T03:42:01.467Z,168.80
2018-12-03T03:44:31.854Z,170.17
2018-12-03T03:47:02.383Z,169.33
2018-12-03T03:49:32.549Z,167.93
2018-12-03T03:52:02.830Z,184.80
2018-12-03T03:54:33.064Z,156.77
2018-12-03T03:57:03.488Z,164.40
2018-12-03T03:59:33.771Z,164.30
2018-12-03T04:02:04.200Z,155.40
2018-12-03T04:04:34.419Z,150.17
2018-12-03T04:07:04.884Z,159.73
2018-12-03T04:09:35.152Z,152.77
2018-12-03T04:12:05.518Z,158.17
2018-12-03T04:14:35.775Z,157.33
2018-12-03T04:17:06.512Z,155.17
2018-12-03T04:19:36.966Z,163.93
2018-12-03T04:22:07.173Z,162.80
2018-12-03T04:24:37.469Z,163.57
2018-12-03T04:27:07.816Z,164.50
2018-12-03T04:29:38.129Z,171.40
2018-12-03T04:32:08.807Z,164.97
2018-12-03T04:34:39.209Z,165.40
2018-12-03T04:37:09.411Z,169.70
2018-12-03T04:39:39.634Z,170.23
2018-12-03T04:42:09.980Z,171.50
2018-12-03T04:44:40.303Z,173.63
2018-12-03T04:47:10.572Z,168.77
2018-12-03T04:49:40.790Z,171.27
2018-12-03T04:52:11.907Z,179.30
2018-12-03T04:54:42.095Z,172.57
2018-12-03T04:57:12.425Z,165.60
2018-12-03T04:59:42.768Z,168.97
2018-12-03T05:02:13.062Z,175.20
2018-12-03T05:04:43.434Z,172.63
2018-12-03T05:07:13.722Z,168.03
2018-12-03T05:09:43.921Z,161.83
2018-12-03T05:12:14.357Z,160.40
2018-12-03T05:14:44.565Z,156.40
2018-12-03T05:17:14.744Z,158.10
2018-12-03T05:19:44.963Z,151.30
2018-12-03T05:22:15.227Z,148.07
2018-12-03T05:24:45.580Z,131.70
2018-12-03T05:27:15.788Z,138.33
2018-12-03T05:29:46.149Z,136.40
2018-12-03T05:32:16.728Z,133.43
2018-12-03T05:34:47.092Z,146.00
2018-12-03T05:37:17.263Z,147.83
2018-12-03T05:39:47.636Z,151.97
2018-12-03T05:42:17.887Z,154.53
2018-12-03T05:44:48.287Z,154.93
2018-12-03T05:47:18.634Z,158.97
2018-12-03T05:49:48.796Z,158.03
2018-12-03T05:52:19.043Z,162.60
2018-12-03T05:54:49.313Z,164.27
2018-12-03T05:57:19.667Z,166.40
2018-12-03T05:59:50.065Z,163.13
2018-12-03T06:02:20.389Z,145.83
2018-12-03T06:04:50.609Z,140.57
2018-12-03T06:07:20.777Z,141.33
2018-12-03T06:09:51.029Z,144.10
2018-12-03T06:12:21.553Z,161.43
2018-12-03T06:14:51.870Z,145.17
2018-12-03T06:17:22.260Z,135.03
2018-12-03T06:19:52.509Z,135.20
2018-12-03T06:22:22.580Z,131.40
2018-12-03T06:24:52.746Z,128.77
2018-12-03T06:27:23.004Z,136.23
2018-12-03T06:29:53.227Z,135.33
2018-12-03T06:32:23.578Z,124.50
2018-12-03T06:34:53.799Z,112.37
2018-12-03T06:37:23.948Z,117.10
2018-12-03T06:39:54.342Z,115.47
2018-12-03T06:42:24.698Z,113.97
2018-12-03T06:44:55.078Z,111.63
2018-12-03T06:47:25.421Z,106.20
2018-12-03T06:49:55.513Z,101.33
2018-12-03T06:52:25.850Z,101.27
2018-12-03T06:54:56.660Z,99.50
2018-12-03T06:57:27.107Z,98.23
2018-12-03T06:59:57.424Z,103.37
2018-12-03T07:02:27.963Z,103.03
2018-12-03T07:04:58.221Z,102.13
2018-12-03T07:07:28.612Z,106.40
2018-12-03T07:09:58.903Z,107.03
2018-12-03T07:12:29.197Z,108.97
2018-12-03T07:14:59.568Z,108.47
2018-12-03T07:17:29.821Z,110.30
2018-12-03T07:20:00.252Z,110.93
2018-12-03T07:22:31.511Z,114.53
2018-12-03T07:25:01.723Z,110.20
2018-12-03T07:27:32.074Z,114.30
2018-12-03T07:30:02.457Z,109.23
2018-12-03T07:32:32.774Z,106.80
2018-12-03T07:35:03.229Z,108.30
2018-12-03T07:37:33.559Z,108.57
2018-12-03T07:40:03.912Z,111.67
2018-12-03T07:42:34.374Z,109.83
2018-12-03T07:45:05.794Z,111.80
2018-12-03T07:47:36.239Z,108.77
2018-12-03T07:50:09.340Z,111.30
2018-12-03T07:52:39.526Z,106.33
2018-12-03T07:55:12.723Z,112.83
2018-12-03T07:57:45.631Z,111.67
2018-12-03T08:00:20.338Z,111.80
2018-12-03T08:02:50.678Z,113.10
2018-12-03T08:05:21.351Z,118.90
2018-12-03T08:07:51.599Z,117.00
2018-12-03T08:10:21.994Z,115.77
2018-12-03T08:12:52.360Z,126.50
2018-12-03T08:15:22.810Z,120.67
2018-12-03T08:18:01.006Z,116.17
2018-12-03T08:20:37.793Z,116.83
2018-12-03T08:23:10.744Z,115.47
2018-12-03T08:25:41.253Z,112.00
2018-12-03T08:28:11.628Z,121.77
2018-12-03T08:30:42.001Z,118.20
2018-12-03T08:33:12.525Z,119.87
2018-12-03T08:35:42.995Z,115.10
2018-12-03T08:38:13.300Z,117.17
2018-12-03T08:40:43.570Z,117.27
2018-12-03T08:43:14.080Z,117.77
2018-12-03T08:45:44.434Z,122.47
2018-12-03T08:48:14.630Z,128.97
2018-12-03T08:50:46.663Z,128.97
2018-12-03T08:53:16.930Z,124.60
2018-12-03T08:55:47.244Z,119.33
2018-12-03T08:58:17.568Z,117.07
2018-12-03T09:00:48.345Z,116.20
2018-12-03T09:03:22.567Z,118.43
2018-12-03T09:05:52.942Z,123.77
2018-12-03T09:08:23.191Z,122.97
2018-12-03T09:10:53.892Z,122.20
2018-12-03T09:13:24.896Z,123.57
2018-12-03T09:16:00.657Z,125.33
2018-12-03T09:18:37.250Z,122.77
2018-12-03T09:21:11.249Z,123.97
2018-12-03T09:23:42.425Z,123.73
2018-12-03T09:26:13.255Z,126.00
2018-12-03T09:28:43.608Z,121.90
2018-12-03T09:31:19.210Z,127.03
2018-12-03T09:33:58.479Z,123.77
2018-12-03T09:36:29.434Z,126.00
2018-12-03T09:39:17.259Z,129.27
2018-12-03T09:41:48.798Z,124.47
2018-12-03T09:44:19.069Z,128.77
2018-12-03T09:46:49.366Z,132.67
2018-12-03T09:49:19.722Z,135.13
2018-12-03T09:51:50.112Z,137.33
2018-12-03T09:54:20.473Z,138.17
2018-12-03T09:56:52.276Z,138.80
2018-12-03T09:59:24.010Z,139.93
2018-12-03T10:01:56.345Z,137.93
2018-12-03T10:04:29.427Z,138.57
2018-12-03T10:06:59.807Z,140.70
2018-12-03T10:09:35.514Z,141.37
2018-12-03T10:12:06.928Z,141.87
2018-12-03T10:14:37.316Z,139.40
2018-12-03T10:17:07.958Z,143.43
2018-12-03T10:19:38.297Z,147.40
2018-12-03T10:22:09.117Z,150.03
2018-12-03T10:24:39.393Z,159.50
2018-12-03T10:27:12.483Z,157.47
2018-12-03T10:29:42.946Z,155.90
2018-12-03T10:32:18.807Z,161.23
2018-12-03T10:34:49.321Z,159.43
2018-12-03T10:37:21.294Z,158.30
2018-12-03T10:39:51.875Z,169.50
2018-12-03T10:42:22.274Z,171.17
2018-12-03T10:44:52.400Z,177.87
2018-12-03T10:47:22.846Z,200.83
2018-12-03T10:49:53.242Z,196.80
2018-12-03T10:52:24.549Z,197.03
2018-12-03T10:54:55.053Z,202.47
2018-12-03T10:57:25.691Z,200.50
2018-12-03T10:59:56.597Z,197.57
2018-12-03T11:02:29.982Z,206.10
2018-12-03T11:05:05.582Z,195.70
2018-12-03T11:07:35.866Z,187.30
2018-12-03T11:10:07.449Z,168.20
2018-12-03T11:12:37.859Z,175.67
2018-12-03T11:15:13.256Z,185.20
2018-12-03T11:17:43.697Z,175.77
2018-12-03T11:20:13.840Z,174.67
2018-12-03T11:22:44.475Z,173.13
2018-12-03T11:25:16.594Z,170.60
2018-12-03T11:27:48.739Z,166.97
2018-12-03T11:30:19.109Z,160.37
2018-12-03T11:32:49.367Z,169.20
2018-12-03T11:35:25.034Z,164.90
2018-12-03T11:38:01.309Z,161.17
2018-12-03T11:40:41.417Z,163.83
2018-12-03T11:43:11.995Z,162.03
2018-12-03T11:45:42.228Z,167.13
2018-12-03T11:48:12.578Z,160.63
2018-12-03T11:50:42.897Z,170.00
2018-12-03T11:53:13.337Z,171.13
2018-12-03T11:58:35.267Z,166.97
2018-12-03T12:01:05.991Z,165.53
2018-12-03T12:03:42.787Z,163.43
2018-12-03T12:06:13.486Z,168.07
2018-12-03T12:08:43.871Z,164.13
2018-12-03T12:11:15.050Z,166.87
2018-12-03T12:13:47.357Z,171.13
2018-12-03T12:16:17.633Z,172.80
2018-12-03T12:18:47.973Z,169.93
2018-12-03T12:21:18.715Z,175.70
2018-12-03T12:23:49.442Z,175.03
2018-12-03T12:26:19.814Z,171.80
2018-12-03T12:28:50.012Z,167.13
2018-12-03T12:31:20.397Z,160.30
2018-12-03T12:33:50.755Z,159.23
2018-12-03T12:36:21.113Z,158.40
2018-12-03T12:38:51.450Z,158.23
2018-12-03T12:41:21.764Z,154.43
2018-12-03T12:43:51.967Z,151.50
2018-12-03T12:46:24.825Z,150.10
2018-12-03T12:48:55.309Z,153.73
2018-12-03T12:51:25.582Z,155.83
2018-12-03T12:53:55.918Z,155.10
2018-12-03T12:56:26.229Z,142.53
2018-12-03T12:58:56.697Z,141.27
2018-12-03T13:01:27.072Z,140.97
2018-12-03T13:03:57.382Z,142.37
2018-12-03T13:06:27.730Z,142.37
2018-12-03T13:08:58.094Z,143.13
2018-12-03T13:11:28.493Z,138.97
2018-12-03T13:13:58.745Z,142.43
2018-12-03T13:16:28.966Z,136.73
2018-12-03T13:18:59.200Z,134.60
2018-12-03T13:21:29.358Z,136.67
2018-12-03T13:23:59.591Z,135.73
2018-12-03T13:26:30.751Z,136.20
2018-12-03T13:29:01.570Z,133.13
2018-12-03T13:31:31.843Z,132.60
2018-12-03T13:34:02.141Z,134.33
2018-12-03T13:36:32.410Z,140.23
2018-12-03T13:39:05.840Z,139.20
2018-12-03T13:41:37.279Z,138.00
2018-12-03T13:44:08.868Z,132.70
2018-12-03T13:46:39.743Z,138.73
2018-12-03T13:49:10.071Z,143.90
2018-12-03T13:51:40.527Z,140.93
2018-12-03T13:54:10.967Z,142.13
2018-12-03T13:56:43.974Z,133.40
2018-12-03T13:59:14.191Z,146.53
2018-12-03T14:01:44.648Z,145.27
2018-12-03T14:04:15.841Z,149.57
2018-12-03T14:07:02.146Z,134.47
2018-12-03T14:09:56.696Z,128.90
2018-12-03T14:12:55.800Z,125.27
2018-12-03T14:15:39.528Z,128.27
2018-12-03T14:18:14.519Z,126.83
2018-12-03T14:20:47.338Z,126.60
2018-12-03T14:23:21.029Z,133.00
2018-12-03T14:25:51.313Z,131.03
2018-12-03T14:28:21.603Z,133.13
2018-12-03T14:30:51.964Z,138.23
2018-12-03T14:33:22.418Z,142.27
2018-12-03T14:35:52.612Z,149.57
2018-12-03T14:38:22.898Z,165.40
2018-12-03T14:40:53.567Z,171.60
2018-12-03T14:43:23.811Z,171.37
2018-12-03T14:45:54.223Z,179.73
2018-12-03T14:48:24.436Z,189.77
2018-12-03T14:50:54.578Z,193.17
2018-12-03T14:53:24.749Z,192.77
2018-12-03T14:55:55.038Z,200.77
2018-12-03T14:58:25.247Z,197.40
2018-12-03T15:00:56.540Z,194.20
2018-12-03T15:03:27.623Z,189.63
2018-12-03T15:05:58.531Z,193.40
2018-12-03T15:08:28.793Z,202.13
2018-12-03T15:10:59.006Z,193.97
2018-12-03T15:13:29.350Z,193.83
2018-12-03T15:15:59.678Z,190.87
2018-12-03T15:18:30.143Z,191.47
2018-12-03T15:21:00.338Z,181.67
2018-12-03T15:23:30.598Z,173.00
2018-12-03T15:26:01.098Z,221.57
2018-12-03T15:28:31.420Z,183.83
2018-12-03T15:31:02.423Z,170.00
2018-12-03T15:33:32.623Z,151.60
2018-12-03T15:36:02.722Z,150.50
2018-12-03T15:38:33.154Z,151.10
2018-12-03T15:41:03.814Z,149.43
2018-12-03T15:43:34.178Z,148.50
2018-12-03T15:46:04.482Z,160.90
2018-12-03T15:48:34.628Z,149.27
2018-12-03T15:51:05.123Z,142.63
2018-12-03T15:53:35.450Z,158.43
2018-12-03T15:56:05.787Z,141.87
2018-12-03T15:58:36.107Z,134.17
2018-12-03T16:01:06.377Z,141.90
2018-12-03T16:03:36.701Z,142.43
2018-12-03T16:06:06.875Z,158.93
2018-12-03T16:08:37.236Z,141.73
2018-12-03T16:11:07.483Z,145.90
2018-12-03T16:13:37.768Z,143.33
2018-12-03T16:16:08.270Z,151.20
2018-12-03T16:18:38.659Z,141.73
2018-12-03T16:21:09.063Z,149.97
2018-12-03T16:23:39.282Z,155.90
2018-12-03T16:26:09.618Z,153.40
2018-12-03T16:28:39.861Z,158.00
2018-12-03T16:31:10.191Z,151.20
2018-12-03T16:33:40.471Z,147.20
2018-12-03T16:36:10.710Z,148.97
2018-12-03T16:38:41.266Z,143.97
2018-12-03T16:41:11.611Z,163.70
2018-12-03T16:43:41.954Z,146.90
2018-12-03T16:46:12.266Z,142.07
2018-12-03T16:48:42.633Z,139.70
2018-12-03T16:51:13.072Z,141.87
2018-12-03T16:53:43.312Z,138.73
2018-12-03T16:56:13.633Z,141.83
2018-12-03T16:58:43.946Z,136.77
2018-12-03T17:01:14.232Z,119.77
2018-12-03T17:03:44.587Z,112.93
2018-12-03T17:06:14.902Z,115.27
2018-12-03T17:08:46.197Z,119.43
2018-12-03T17:11:16.989Z,115.83
2018-12-03T17:13:47.336Z,121.17
2018-12-03T17:16:17.934Z,124.10
2018-12-03T17:18:50.116Z,127.30
2018-12-03T17:21:37.718Z,125.93
2018-12-03T17:24:11.314Z,132.17
2018-12-03T17:26:42.185Z,139.30
2018-12-03T17:29:12.557Z,175.13
2018-12-03T17:31:42.982Z,147.33
2018-12-03T17:34:13.306Z,128.37
2018-12-03T17:36:43.684Z,126.23
2018-12-03T17:39:13.892Z,116.33
2018-12-03T17:41:46.437Z,111.87
2018-12-03T17:44:16.750Z,110.47
2018-12-03T17:46:47.195Z,109.50
2018-12-03T17:49:18.011Z,105.93
2018-12-03T17:51:48.345Z,106.03
2018-12-03T17:54:18.473Z,101.63
2018-12-03T17:56:48.788Z,102.27
2018-12-03T17:59:19.208Z,100.53
2018-12-03T18:03:18.785Z,102.27
2018-12-03T18:05:49.131Z,92.67
2018-12-03T18:08:19.266Z,98.23
2018-12-03T18:10:49.649Z,97.37
2018-12-03T18:13:19.952Z,99.10
2018-12-03T18:15:50.434Z,104.43
2018-12-03T18:18:20.833Z,100.77
2018-12-03T18:20:51.266Z,104.27
2018-12-03T18:23:21.420Z,120.10
2018-12-03T18:25:51.849Z,96.90
2018-12-03T18:28:22.097Z,96.50
2018-12-03T18:30:52.404Z,100.50
2018-12-03T18:33:23.407Z,98.20
2018-12-03T18:35:53.811Z,100.47
2018-12-03T18:38:24.727Z,101.70
2018-12-03T18:40:55.323Z,103.00
2018-12-03T18:43:25.439Z,106.90
2018-12-03T18:45:55.771Z,108.20
2018-12-03T18:48:27.232Z,106.13
2018-12-03T18:50:57.587Z,111.23
2018-12-03T18:53:28.927Z,108.27
2018-12-03T18:55:59.354Z,107.27
2018-12-03T18:58:35.267Z,110.13
2018-12-03T19:01:05.830Z,118.13
2018-12-03T19:03:36.195Z,117.50
2018-12-03T19:06:07.215Z,115.77
2018-12-03T19:08:37.591Z,120.13
2018-12-03T19:11:09.204Z,117.93
2018-12-03T19:13:39.756Z,119.10
2018-12-03T19:16:10.159Z,118.17
2018-12-03T19:18:40.301Z,118.10
2018-12-03T19:21:10.798Z,119.87
2018-12-03T19:23:41.199Z,121.00
2018-12-03T19:26:11.678Z,120.57
2018-12-03T19:28:42.051Z,120.50
2018-12-03T19:31:12.362Z,122.80
2018-12-03T19:33:44.807Z,119.90
2018-12-03T19:36:22.904Z,121.53
2018-12-03T19:38:53.064Z,115.07
2018-12-03T19:41:23.451Z,117.93
2018-12-03T19:43:53.844Z,115.23
2018-12-03T19:46:24.275Z,113.70
2018-12-03T19:48:54.640Z,113.90
2018-12-03T19:51:24.847Z,116.07
2018-12-03T19:53:56.255Z,112.83
2018-12-03T19:56:26.676Z,118.00
2018-12-03T19:58:57.324Z,123.27
2018-12-03T20:01:27.686Z,110.63
2018-12-03T20:03:58.073Z,113.53
2018-12-03T20:06:28.392Z,115.27
2018-12-03T20:08:58.778Z,116.23
2018-12-03T20:11:29.200Z,111.93
2018-12-03T20:13:59.533Z,117.57
2018-12-03T20:16:29.772Z,115.97
2018-12-03T20:19:00.087Z,115.80
2018-12-03T20:21:30.447Z,122.10
2018-12-03T20:24:07.086Z,123.70
2018-12-03T20:26:41.396Z,127.63
2018-12-03T20:29:31.241Z,117.83
2018-12-03T20:33:09.978Z,124.37
2018-12-03T20:35:51.797Z,118.47
2018-12-03T20:38:32.051Z,121.17
2018-12-03T20:41:34.916Z,123.90
2018-12-03T20:44:23.812Z,124.87
2018-12-03T20:47:02.430Z,128.53
2018-12-03T20:49:45.298Z,121.80
2018-12-03T20:52:20.849Z,125.80
2018-12-03T20:54:53.991Z,135.87
2018-12-03T20:57:26.501Z,125.70
2018-12-03T20:59:56.729Z,132.00
2018-12-03T21:02:27.811Z,136.27
2018-12-03T21:04:58.083Z,142.97
2018-12-03T21:07:28.383Z,134.93
2018-12-03T21:09:58.475Z,130.20
2018-12-03T21:12:28.836Z,139.73
2018-12-03T21:14:59.122Z,134.60
2018-12-03T21:17:29.412Z,132.17
2018-12-03T21:20:06.664Z,137.07
2018-12-03T21:22:37.075Z,134.33
2018-12-03T21:25:07.305Z,132.13
2018-12-03T21:27:37.630Z,129.03
2018-12-03T21:30:09.679Z,132.87
2018-12-03T21:32:40.012Z,127.20
2018-12-03T21:35:10.112Z,125.23
2018-12-03T21:37:40.350Z,129.07
2018-12-03T21:40:10.692Z,141.67
2018-12-03T21:42:40.912Z,141.40
2018-12-03T21:45:11.171Z,146.30
2018-12-03T21:47:41.365Z,140.77
2018-12-03T21:50:11.754Z,141.23
2018-12-03T21:52:41.954Z,130.33
2018-12-03T21:55:13.179Z,128.37
2018-12-03T21:57:43.864Z,127.77
2018-12-03T22:00:19.671Z,128.33
2018-12-03T22:02:49.773Z,125.57
2018-12-03T22:05:20.073Z,127.67
2018-12-03T22:07:50.481Z,121.23
2018-12-03T22:10:20.710Z,129.73
2018-12-03T22:12:50.934Z,126.70
2018-12-03T22:15:21.442Z,126.37
2018-12-03T22:17:51.658Z,126.17
2018-12-03T22:20:21.962Z,125.77
2018-12-03T22:22:52.208Z,126.00
2018-12-03T22:25:22.471Z,128.30
2018-12-03T22:27:52.823Z,126.30
2018-12-03T22:30:23.120Z,127.87
2018-12-03T22:32:53.336Z,124.77
2018-12-03T22:35:23.617Z,126.47
2018-12-03T22:37:53.813Z,119.73
2018-12-03T22:40:24.259Z,119.93
2018-12-03T22:42:54.563Z,116.80
2018-12-03T22:45:25.436Z,120.30
2018-12-03T22:47:55.703Z,112.57
2018-12-03T22:50:25.773Z,111.20
2018-12-03T22:52:55.957Z,114.13
2018-12-03T22:55:26.462Z,114.37
2018-12-03T22:57:56.736Z,115.63
2018-12-03T23:00:36.263Z,109.30
2018-12-03T23:03:06.839Z,114.27
2018-12-03T23:05:37.211Z,113.00
2018-12-03T23:08:07.334Z,113.73
2018-12-03T23:10:37.952Z,114.83
2018-12-03T23:13:08.316Z,113.00
2018-12-03T23:15:38.714Z,115.33
2018-12-03T23:18:09.155Z,116.27
2018-12-03T23:20:39.577Z,113.53
2018-12-03T23:23:09.894Z,109.60
2018-12-03T23:25:40.161Z,110.53
2018-12-03T23:28:10.310Z,111.43
2018-12-03T23:30:40.541Z,111.70
2018-12-03T23:33:10.814Z,110.80
2018-12-03T23:35:41.273Z,111.07
2018-12-03T23:38:11.463Z,109.77
2018-12-03T23:40:41.708Z,110.03
2018-12-03T23:43:12.027Z,111.50
2018-12-03T23:45:42.202Z,112.93
2018-12-03T23:48:12.530Z,108.57
2018-12-03T23:50:42.834Z,111.27
2018-12-03T23:53:13.123Z,113.90
2018-12-03T23:55:43.354Z,108.53
2018-12-03T23:58:13.677Z,105.63
